Time;durP1;ratioP1;P1;durP2;ratioP2;P2;SDS_P1;SDS_P2;PMS_P1;PMS_P2;Temp;Humidity;BMP_temperature;BMP_pressure;BME280_temperature;BME280_humidity;BME280_pressure;Samples;Min_cycle;Max_cycle;Signal;HPM_P1;HPM_P2
2023/04/21 00:01:31;;;;;;;;;24.75;23.00;;;;;;;;4978114;28;45352;-84
2023/04/21 00:03:56;;;;;;;;;25.25;21.50;;;;;;;;4978394;28;45369;-84
2023/04/21 00:06:22;;;;;;;;;25.50;22.50;;;;;;;;4977297;28;45366;-83
2023/04/21 00:08:49;;;;;;;;;23.50;22.25;;;;;;;;4977907;28;45489;-82
2023/04/21 00:11:14;;;;;;;;;26.50;20.50;;;;;;;;4976232;28;45374;-83
2023/04/21 00:13:40;;;;;;;;;25.75;25.75;;;;;;;;4977584;28;45401;-83
2023/04/21 00:16:05;;;;;;;;;20.25;18.00;;;;;;;;4977634;28;45509;-83
2023/04/21 00:18:31;;;;;;;;;22.00;20.75;;;;;;;;4977788;28;45475;-83
2023/04/21 00:20:56;;;;;;;;;26.50;22.75;;;;;;;;4977869;28;45468;-84
2023/04/21 00:23:21;;;;;;;;;23.75;23.00;;;;;;;;4977828;28;45317;-83
2023/04/21 00:25:46;;;;;;;;;22.00;22.00;;;;;;;;4977831;28;46132;-83
2023/04/21 00:28:12;;;;;;;;;31.75;23.75;;;;;;;;4976408;28;45411;-83
2023/04/21 00:30:37;;;;;;;;;28.25;26.75;;;;;;;;4976474;28;45337;-84
2023/04/21 00:33:02;;;;;;;;;28.25;28.00;;;;;;;;4977780;28;45290;-82
2023/04/21 00:35:27;;;;;;;;;23.00;22.50;;;;;;;;4977908;28;45424;-83
2023/04/21 00:37:52;;;;;;;;;35.25;27.50;;;;;;;;4978051;28;45354;-82
2023/04/21 00:40:18;;;;;;;;;22.75;19.50;;;;;;;;4978172;28;45408;-83
2023/04/21 00:42:43;;;;;;;;;31.75;28.00;;;;;;;;4977835;28;45496;-83
2023/04/21 00:45:09;;;;;;;;;23.00;21.25;;;;;;;;4978104;28;46298;-83
2023/04/21 00:47:35;;;;;;;;;18.25;18.00;;;;;;;;4967056;28;45453;-82
2023/04/21 00:50:01;;;;;;;;;21.75;21.75;;;;;;;;4977798;28;45371;-82
2023/04/21 00:52:27;;;;;;;;;31.75;26.75;;;;;;;;4978967;28;45393;-84
2023/04/21 00:54:52;;;;;;;;;28.50;26.25;;;;;;;;4981277;28;46999;-83
2023/04/21 00:57:18;;;;;;;;;33.75;32.50;;;;;;;;4981917;28;45314;-83
2023/04/21 00:59:43;;;;;;;;;27.25;26.50;;;;;;;;4980122;28;45305;-83
2023/04/21 01:02:08;;;;;;;;;34.50;28.75;;;;;;;;4977466;28;45501;-83
2023/04/21 01:04:37;;;;;;;;;28.25;27.00;;;;;;;;4977619;28;45235;-83
2023/04/21 01:07:03;;;;;;;;;32.25;31.00;;;;;;;;4977339;28;45378;-83
2023/04/21 01:09:28;;;;;;;;;24.25;23.75;;;;;;;;4977167;28;45346;-82
2023/04/21 01:12:12;;;;;;;;;24.75;24.75;;;;;;;;4977353;28;45382;-82
2023/04/21 01:14:38;;;;;;;;;24.75;21.75;;;;;;;;4976617;28;46635;-84
2023/04/21 01:17:04;;;;;;;;;23.75;23.75;;;;;;;;4976943;28;45414;-81
2023/04/21 01:19:31;;;;;;;;;25.75;24.00;;;;;;;;4976613;28;45397;-81
2023/04/21 01:21:59;;;;;;;;;24.50;24.50;;;;;;;;4977421;28;45463;-82
2023/04/21 01:24:34;;;;;;;;;31.00;26.25;;;;;;;;4976862;28;45457;-82
2023/04/21 01:27:00;;;;;;;;;19.00;18.75;;;;;;;;4976637;28;45299;-82
2023/04/21 01:29:26;;;;;;;;;23.00;22.00;;;;;;;;4976827;28;45401;-80
2023/04/21 01:31:51;;;;;;;;;22.25;21.00;;;;;;;;4976836;28;45587;-76
2023/04/21 01:34:16;;;;;;;;;25.00;19.75;;;;;;;;4976192;28;45349;-77
2023/04/21 01:36:41;;;;;;;;;24.25;20.75;;;;;;;;4975643;28;45390;-78
2023/04/21 01:39:07;;;;;;;;;22.25;20.50;;;;;;;;4975650;28;45444;-77
2023/04/21 01:41:32;;;;;;;;;24.50;21.00;;;;;;;;4976593;28;45226;-78
2023/04/21 01:43:57;;;;;;;;;24.25;21.50;;;;;;;;4974716;28;47285;-77
2023/04/21 01:46:22;;;;;;;;;21.50;19.75;;;;;;;;4973888;28;46077;-77
2023/04/21 01:48:47;;;;;;;;;25.75;21.75;;;;;;;;4957507;28;45305;-77
2023/04/21 01:51:13;;;;;;;;;20.75;19.75;;;;;;;;4957026;28;45560;-78
2023/04/21 01:53:38;;;;;;;;;19.00;18.00;;;;;;;;4956897;28;46379;-77
2023/04/21 01:56:03;;;;;;;;;21.25;20.50;;;;;;;;4960457;28;45765;-77
2023/04/21 01:58:28;;;;;;;;;23.75;21.50;;;;;;;;4976193;28;45550;-78
2023/04/21 02:00:53;;;;;;;;;23.75;20.50;;;;;;;;4976497;28;45482;-78
2023/04/21 02:03:19;;;;;;;;;21.50;21.00;;;;;;;;4976399;28;46422;-78
2023/04/21 02:05:44;;;;;;;;;20.00;18.75;;;;;;;;4976263;28;45405;-77
2023/04/21 02:08:09;;;;;;;;;22.75;22.00;;;;;;;;4975959;28;45414;-78
2023/04/21 02:10:35;;;;;;;;;21.75;20.75;;;;;;;;4976721;28;45413;-77
2023/04/21 02:13:00;;;;;;;;;21.50;21.50;;;;;;;;4976005;28;45491;-77
2023/04/21 02:15:25;;;;;;;;;26.25;20.50;;;;;;;;4976682;28;45504;-77
2023/04/21 02:17:50;;;;;;;;;20.25;19.75;;;;;;;;4976898;28;45336;-77
2023/04/21 02:20:16;;;;;;;;;21.00;19.75;;;;;;;;4976045;28;45440;-78
2023/04/21 02:22:41;;;;;;;;;24.50;22.50;;;;;;;;4975728;28;45389;-78
2023/04/21 02:25:06;;;;;;;;;29.75;24.75;;;;;;;;4976277;28;45523;-77
2023/04/21 02:27:31;;;;;;;;;26.00;24.75;;;;;;;;4975950;28;45941;-77
2023/04/21 02:29:57;;;;;;;;;23.25;23.00;;;;;;;;4976284;28;45674;-76
2023/04/21 02:32:22;;;;;;;;;25.75;22.50;;;;;;;;4975546;28;46198;-77
2023/04/21 02:34:47;;;;;;;;;27.75;22.50;;;;;;;;4974009;28;45507;-77
2023/04/21 02:37:12;;;;;;;;;23.25;22.25;;;;;;;;4976182;28;45375;-77
2023/04/21 02:39:37;;;;;;;;;27.25;26.25;;;;;;;;4975942;28;45501;-78
2023/04/21 02:42:03;;;;;;;;;21.50;18.25;;;;;;;;4975403;28;45393;-77
2023/04/21 02:44:28;;;;;;;;;23.00;21.00;;;;;;;;4975677;28;45460;-78
2023/04/21 02:46:53;;;;;;;;;24.75;22.25;;;;;;;;4969593;28;45481;-77
2023/04/21 02:49:18;;;;;;;;;19.50;19.50;;;;;;;;4955907;28;45424;-78
2023/04/21 02:51:43;;;;;;;;;22.75;22.50;;;;;;;;4956279;28;46428;-78
2023/04/21 02:54:09;;;;;;;;;23.75;21.25;;;;;;;;4954884;28;45430;-78
2023/04/21 02:56:35;;;;;;;;;16.75;16.75;;;;;;;;4963762;28;45484;-77
2023/04/21 02:59:00;;;;;;;;;18.25;15.25;;;;;;;;4975601;28;45414;-77
2023/04/21 03:01:25;;;;;;;;;18.00;18.00;;;;;;;;4973932;28;47378;-77
2023/04/21 03:03:50;;;;;;;;;22.50;20.00;;;;;;;;4975399;28;45416;-77
2023/04/21 03:06:16;;;;;;;;;27.50;24.00;;;;;;;;4975260;28;45343;-77
2023/04/21 03:08:41;;;;;;;;;16.50;16.50;;;;;;;;4973978;28;45346;-78
2023/04/21 03:11:06;;;;;;;;;19.00;16.75;;;;;;;;4973516;28;48220;-78
2023/04/21 03:13:31;;;;;;;;;26.00;21.25;;;;;;;;4975108;28;45437;-78
2023/04/21 03:15:56;;;;;;;;;21.25;19.25;;;;;;;;4975191;28;45341;-77
2023/04/21 03:18:22;;;;;;;;;25.50;25.00;;;;;;;;4974941;28;45324;-78
2023/04/21 03:20:47;;;;;;;;;17.75;17.75;;;;;;;;4974621;28;45732;-78
2023/04/21 03:23:12;;;;;;;;;23.75;23.75;;;;;;;;4975155;28;45442;-78
2023/04/21 03:25:38;;;;;;;;;18.75;16.00;;;;;;;;4974539;28;45374;-78
2023/04/21 03:28:03;;;;;;;;;16.25;14.25;;;;;;;;4974594;28;45198;-78
2023/04/21 03:30:28;;;;;;;;;19.50;18.00;;;;;;;;4973459;28;46803;-79
2023/04/21 03:32:57;;;;;;;;;23.00;21.00;;;;;;;;4975111;28;45444;-77
2023/04/21 03:35:23;;;;;;;;;20.25;20.25;;;;;;;;4973850;28;45401;-78
2023/04/21 03:37:50;;;;;;;;;22.75;21.75;;;;;;;;4975025;28;45322;-78
2023/04/21 03:40:16;;;;;;;;;25.75;22.00;;;;;;;;4973331;28;46584;-79
2023/04/21 03:42:41;;;;;;;;;21.00;17.00;;;;;;;;4973920;28;45344;-79
2023/04/21 03:45:07;;;;;;;;;22.00;17.25;;;;;;;;4975404;28;45324;-79
2023/04/21 03:47:32;;;;;;;;;22.25;20.00;;;;;;;;4963920;28;45331;-78
2023/04/21 03:49:57;;;;;;;;;24.00;22.00;;;;;;;;4955443;28;46155;-78
2023/04/21 03:52:23;;;;;;;;;23.25;21.25;;;;;;;;4961606;28;45318;-79
2023/04/21 03:54:48;;;;;;;;;29.00;26.75;;;;;;;;4974838;28;45818;-78
2023/04/21 03:57:14;;;;;;;;;46.00;37.50;;;;;;;;4975265;28;45433;-77
2023/04/21 03:59:39;;;;;;;;;48.50;40.00;;;;;;;;4977135;28;46335;-77
2023/04/21 04:02:04;;;;;;;;;38.25;34.50;;;;;;;;4978613;28;45483;-78
2023/04/21 04:04:30;;;;;;;;;28.25;23.25;;;;;;;;4978807;28;45366;-78
2023/04/21 04:06:55;;;;;;;;;33.25;28.50;;;;;;;;4978636;28;45410;-77
2023/04/21 04:09:20;;;;;;;;;31.75;29.25;;;;;;;;4978590;28;45523;-78
2023/04/21 04:11:46;;;;;;;;;24.00;24.00;;;;;;;;4980600;28;45373;-76
2023/04/21 04:14:11;;;;;;;;;29.00;23.25;;;;;;;;4981449;28;45464;-78
2023/04/21 04:16:36;;;;;;;;;28.00;24.00;;;;;;;;4978431;28;45338;-77
2023/04/21 04:19:02;;;;;;;;;29.00;26.25;;;;;;;;4978245;28;45423;-77
2023/04/21 04:21:27;;;;;;;;;28.00;23.25;;;;;;;;4977184;28;45576;-79
2023/04/21 04:23:52;;;;;;;;;23.25;19.25;;;;;;;;4978504;28;45529;-78
2023/04/21 04:26:18;;;;;;;;;22.25;21.50;;;;;;;;4978150;28;45373;-78
2023/04/21 04:28:43;;;;;;;;;23.50;21.00;;;;;;;;4977922;28;46059;-78
2023/04/21 04:31:08;;;;;;;;;21.25;20.75;;;;;;;;4978074;28;45738;-78
2023/04/21 04:33:34;;;;;;;;;26.00;24.25;;;;;;;;4977981;28;45515;-78
2023/04/21 04:35:59;;;;;;;;;27.75;25.25;;;;;;;;4977579;28;45388;-77
2023/04/21 04:38:25;;;;;;;;;27.00;24.50;;;;;;;;4977552;28;46196;-78
2023/04/21 04:40:54;;;;;;;;;22.00;21.75;;;;;;;;4977798;28;45464;-78
2023/04/21 04:43:19;;;;;;;;;27.75;23.75;;;;;;;;4978004;28;45492;-79
2023/04/21 04:45:44;;;;;;;;;25.75;22.75;;;;;;;;4979162;28;45405;-78
2023/04/21 04:48:10;;;;;;;;;29.00;27.00;;;;;;;;4966722;28;45365;-78
2023/04/21 04:50:35;;;;;;;;;27.25;23.75;;;;;;;;4977207;28;45598;-78
2023/04/21 04:53:00;;;;;;;;;23.25;21.75;;;;;;;;4977705;28;45365;-78
2023/04/21 04:55:25;;;;;;;;;27.00;22.75;;;;;;;;4977091;28;45440;-78
2023/04/21 04:57:51;;;;;;;;;25.00;22.75;;;;;;;;4977409;28;46190;-78
2023/04/21 05:00:16;;;;;;;;;27.50;24.75;;;;;;;;4975872;28;45409;-77
2023/04/21 05:02:41;;;;;;;;;23.25;23.25;;;;;;;;4977564;28;45436;-79
2023/04/21 05:05:06;;;;;;;;;26.75;25.25;;;;;;;;4977186;28;45397;-79
2023/04/21 05:07:32;;;;;;;;;19.75;19.00;;;;;;;;4977008;28;45856;-77
2023/04/21 05:09:58;;;;;;;;;22.75;21.50;;;;;;;;4976037;28;45346;-77
2023/04/21 05:12:23;;;;;;;;;24.25;23.00;;;;;;;;4977034;28;45374;-78
2023/04/21 05:14:48;;;;;;;;;27.00;25.00;;;;;;;;4976949;28;45413;-78
2023/04/21 05:17:13;;;;;;;;;27.00;24.25;;;;;;;;4976756;28;46102;-78
2023/04/21 05:19:38;;;;;;;;;26.00;25.00;;;;;;;;4976430;28;45394;-79
2023/04/21 05:22:05;;;;;;;;;27.75;24.25;;;;;;;;4977342;28;45313;-76
2023/04/21 05:24:30;;;;;;;;;28.25;23.25;;;;;;;;4976941;28;45460;-78
2023/04/21 05:26:56;;;;;;;;;26.50;23.25;;;;;;;;4975253;28;48500;-76
2023/04/21 05:29:21;;;;;;;;;28.00;23.25;;;;;;;;4976760;28;45324;-78
2023/04/21 05:31:46;;;;;;;;;29.75;25.50;;;;;;;;4977025;28;45489;-77
2023/04/21 05:34:11;;;;;;;;;24.25;21.25;;;;;;;;4976538;28;45278;-77
2023/04/21 05:36:40;;;;;;;;;19.50;17.75;;;;;;;;4976430;28;46348;-77
2023/04/21 05:39:06;;;;;;;;;20.50;19.25;;;;;;;;4976539;28;45385;-78
2023/04/21 05:41:31;;;;;;;;;24.25;22.75;;;;;;;;4976295;28;45516;-78
2023/04/21 05:43:56;;;;;;;;;23.50;21.00;;;;;;;;4976612;28;45471;-78
2023/04/21 05:46:21;;;;;;;;;24.75;23.25;;;;;;;;4975559;28;45597;-79
2023/04/21 05:48:46;;;;;;;;;32.50;29.00;;;;;;;;4956963;28;45516;-78
2023/04/21 05:51:14;;;;;;;;;26.00;24.25;;;;;;;;4957566;28;45452;-78
2023/04/21 05:53:39;;;;;;;;;32.00;31.00;;;;;;;;4974231;28;45374;-78
2023/04/21 05:56:05;;;;;;;;;27.00;26.00;;;;;;;;4976131;28;45344;-75
2023/04/21 05:58:30;;;;;;;;;23.50;20.75;;;;;;;;4976715;28;45321;-75
2023/04/21 06:00:55;;;;;;;;;30.00;26.50;;;;;;;;4976510;28;45492;-75
2023/04/21 06:03:21;;;;;;;;;29.00;25.75;;;;;;;;4976418;28;45357;-75
2023/04/21 06:05:46;;;;;;;;;27.50;23.75;;;;;;;;4976061;28;45518;-75
2023/04/21 06:08:11;;;;;;;;;34.50;33.00;;;;;;;;4974596;28;45349;-75
2023/04/21 06:10:36;;;;;;;;;23.50;23.25;;;;;;;;4975915;28;45370;-74
2023/04/21 06:13:02;;;;;;;;;30.75;24.50;;;;;;;;4976281;28;45307;-75
2023/04/21 06:15:27;;;;;;;;;20.75;19.75;;;;;;;;4975034;28;45472;-76
2023/04/21 06:17:54;;;;;;;;;27.25;21.50;;;;;;;;4975323;28;45373;-75
2023/04/21 06:20:19;;;;;;;;;30.25;25.25;;;;;;;;4975666;28;45539;-75
2023/04/21 06:22:44;;;;;;;;;23.75;23.50;;;;;;;;4975338;28;45442;-75
2023/04/21 06:25:09;;;;;;;;;33.25;30.25;;;;;;;;4975884;28;45451;-75
2023/04/21 06:27:35;;;;;;;;;34.50;30.00;;;;;;;;4975207;28;45476;-75
2023/04/21 06:30:00;;;;;;;;;28.50;24.50;;;;;;;;4974476;28;45424;-76
2023/04/21 06:32:25;;;;;;;;;33.25;27.50;;;;;;;;4975755;28;45416;-76
2023/04/21 06:34:50;;;;;;;;;31.00;25.25;;;;;;;;4975477;28;46598;-75
2023/04/21 06:37:16;;;;;;;;;23.25;23.00;;;;;;;;4975596;28;45369;-75
2023/04/21 06:39:41;;;;;;;;;34.25;33.25;;;;;;;;4975708;28;45227;-75
2023/04/21 06:42:06;;;;;;;;;34.25;30.00;;;;;;;;4974530;28;45576;-75
2023/04/21 06:44:31;;;;;;;;;26.00;25.25;;;;;;;;4975588;28;46129;-75
2023/04/21 06:46:56;;;;;;;;;33.25;29.75;;;;;;;;4969520;28;45314;-75
2023/04/21 06:49:21;;;;;;;;;26.50;25.25;;;;;;;;4956530;28;45380;-75
2023/04/21 06:51:47;;;;;;;;;24.50;22.00;;;;;;;;4958558;28;45377;-75
2023/04/21 06:54:12;;;;;;;;;30.50;29.00;;;;;;;;4975216;28;45361;-76
2023/04/21 06:56:37;;;;;;;;;32.00;29.00;;;;;;;;4975180;28;45301;-75
2023/04/21 06:59:02;;;;;;;;;41.75;38.00;;;;;;;;4975371;28;45283;-75
2023/04/21 07:01:27;;;;;;;;;40.25;35.50;;;;;;;;4975289;28;45368;-75
2023/04/21 07:03:53;;;;;;;;;30.75;28.25;;;;;;;;4974313;28;47581;-75
2023/04/21 07:06:18;;;;;;;;;39.25;34.00;;;;;;;;4975777;28;45454;-75
2023/04/21 07:08:43;;;;;;;;;36.00;31.50;;;;;;;;4975402;28;45282;-75
2023/04/21 07:11:09;;;;;;;;;32.75;27.50;;;;;;;;4975706;28;45376;-76
2023/04/21 07:13:34;;;;;;;;;28.25;27.75;;;;;;;;4976002;28;45972;-74
2023/04/21 07:15:59;;;;;;;;;32.25;29.00;;;;;;;;4976411;28;45418;-74
2023/04/21 07:18:25;;;;;;;;;31.25;30.25;;;;;;;;4977656;28;45405;-75
2023/04/21 07:20:50;;;;;;;;;30.75;26.25;;;;;;;;4977447;28;45210;-75
2023/04/21 07:23:15;;;;;;;;;27.00;26.00;;;;;;;;4976207;28;45305;-75
2023/04/21 07:25:40;;;;;;;;;31.50;28.00;;;;;;;;4974882;28;45304;-75
2023/04/21 07:28:06;;;;;;;;;29.50;28.00;;;;;;;;4974390;28;45412;-75
2023/04/21 07:30:31;;;;;;;;;27.75;27.00;;;;;;;;4973546;28;45494;-75
2023/04/21 07:32:56;;;;;;;;;30.50;28.75;;;;;;;;4974632;28;46167;-75
2023/04/21 07:35:22;;;;;;;;;28.25;26.25;;;;;;;;4977858;28;45476;-76
2023/04/21 07:37:47;;;;;;;;;33.75;31.50;;;;;;;;4978705;28;45721;-76
2023/04/21 07:40:12;;;;;;;;;28.00;26.00;;;;;;;;4978676;28;45234;-76
2023/04/21 07:42:38;;;;;;;;;34.75;30.75;;;;;;;;4978403;28;46043;-76
2023/04/21 07:45:03;;;;;;;;;29.25;27.00;;;;;;;;4978142;28;45322;-76
2023/04/21 07:47:28;;;;;;;;;32.75;27.25;;;;;;;;4966640;28;45334;-76
2023/04/21 07:49:54;;;;;;;;;26.25;25.75;;;;;;;;4957568;28;45545;-76
2023/04/21 07:52:19;;;;;;;;;23.25;23.25;;;;;;;;4958724;28;46115;-76
2023/04/21 07:54:44;;;;;;;;;29.50;25.75;;;;;;;;4957498;28;45511;-76
2023/04/21 07:57:09;;;;;;;;;31.25;26.50;;;;;;;;4959028;28;45519;-77
2023/04/21 07:59:35;;;;;;;;;34.00;32.75;;;;;;;;4958590;28;45476;-76
2023/04/21 08:02:00;;;;;;;;;26.00;23.25;;;;;;;;4958639;28;45681;-76
2023/04/21 08:04:25;;;;;;;;;35.75;31.50;;;;;;;;4958989;28;45498;-77
2023/04/21 08:06:51;;;;;;;;;28.75;23.75;;;;;;;;4958746;28;45486;-76
2023/04/21 08:09:16;;;;;;;;;26.50;25.00;;;;;;;;4972584;28;45578;-76
2023/04/21 08:11:41;;;;;;;;;23.00;23.00;;;;;;;;4976328;28;47112;-76
2023/04/21 08:14:08;;;;;;;;;13.75;13.25;;;;;;;;4977666;28;45457;-76
2023/04/21 08:16:34;;;;;;;;;32.75;30.00;;;;;;;;4977754;28;45373;-76
2023/04/21 08:18:59;;;;;;;;;28.25;26.25;;;;;;;;4977415;28;45532;-77
2023/04/21 08:21:24;;;;;;;;;31.00;26.75;;;;;;;;4977338;28;45634;-76
2023/04/21 08:23:50;;;;;;;;;22.75;21.50;;;;;;;;4977778;28;45333;-76
2023/04/21 08:26:15;;;;;;;;;30.00;24.75;;;;;;;;4977817;28;45419;-76
2023/04/21 08:28:40;;;;;;;;;26.50;24.75;;;;;;;;4975087;28;45416;-76
2023/04/21 08:31:06;;;;;;;;;34.50;30.75;;;;;;;;4976581;28;45459;-76
2023/04/21 08:33:31;;;;;;;;;23.50;23.50;;;;;;;;4976074;28;45301;-77
2023/04/21 08:35:56;;;;;;;;;25.75;23.00;;;;;;;;4976704;28;45420;-76
2023/04/21 08:38:21;;;;;;;;;32.00;30.50;;;;;;;;4976802;28;45311;-76
2023/04/21 08:40:48;;;;;;;;;25.25;24.00;;;;;;;;4975175;28;47297;-77
2023/04/21 08:43:13;;;;;;;;;23.50;22.00;;;;;;;;4976438;28;45475;-77
2023/04/21 08:45:40;;;;;;;;;26.50;23.25;;;;;;;;4974955;28;45437;-77
2023/04/21 08:48:05;;;;;;;;;20.75;20.00;;;;;;;;4961512;28;45365;-77
2023/04/21 08:50:31;;;;;;;;;22.50;21.25;;;;;;;;4956629;28;45697;-77
2023/04/21 08:52:56;;;;;;;;;26.25;24.75;;;;;;;;4968224;28;45503;-77
2023/04/21 08:55:26;;;;;;;;;36.50;30.25;;;;;;;;4976115;28;45358;-76
2023/04/21 08:57:51;;;;;;;;;26.25;24.50;;;;;;;;4976100;28;45377;-77
2023/04/21 09:00:16;;;;;;;;;25.25;24.00;;;;;;;;4975735;28;45958;-77
2023/04/21 09:02:57;;;;;;;;;22.00;20.50;;;;;;;;4976256;28;45373;-77
2023/04/21 09:05:27;;;;;;;;;28.50;26.50;;;;;;;;4976028;28;45825;-74
2023/04/21 09:08:08;;;;;;;;;28.25;25.75;;;;;;;;4975826;28;45254;-77
2023/04/21 09:10:33;;;;;;;;;30.50;28.50;;;;;;;;4974422;28;47679;-77
2023/04/21 09:13:05;;;;;;;;;25.50;25.25;;;;;;;;4975723;28;45419;-78
2023/04/21 09:15:36;;;;;;;;;26.75;26.50;;;;;;;;4974405;28;45443;-76
2023/04/21 09:18:02;;;;;;;;;28.50;25.00;;;;;;;;4975099;28;45462;-77
2023/04/21 09:20:27;;;;;;;;;25.50;22.50;;;;;;;;4975811;28;45270;-77
2023/04/21 09:22:52;;;;;;;;;20.25;20.25;;;;;;;;4975764;28;45435;-77
2023/04/21 09:25:21;;;;;;;;;15.75;15.75;;;;;;;;4975842;28;45282;-77
2023/04/21 09:27:46;;;;;;;;;21.75;20.75;;;;;;;;4927507;28;1358086;-77
2023/04/21 09:30:12;;;;;;;;;12.75;11.75;;;;;;;;4976605;28;46213;-77
2023/04/21 09:32:40;;;;;;;;;22.75;18.25;;;;;;;;4976686;28;45504;-76
2023/04/21 09:35:09;;;;;;;;;17.75;17.00;;;;;;;;4975440;28;45286;-76
2023/04/21 09:37:34;;;;;;;;;18.50;18.50;;;;;;;;4976845;28;45349;-77
2023/04/21 09:40:00;;;;;;;;;17.75;16.25;;;;;;;;4976418;28;46169;-77
2023/04/21 09:42:29;;;;;;;;;20.75;20.75;;;;;;;;4975180;28;45368;-77
2023/04/21 09:44:54;;;;;;;;;17.50;16.75;;;;;;;;4976684;28;45417;-76
2023/04/21 09:47:21;;;;;;;;;17.50;17.25;;;;;;;;4967726;28;45404;-76
2023/04/21 09:49:50;;;;;;;;;19.50;17.75;;;;;;;;4956895;28;45368;-76
2023/04/21 09:52:16;;;;;;;;;19.50;17.00;;;;;;;;4962664;28;45492;-77
2023/04/21 09:54:48;;;;;;;;;27.00;21.75;;;;;;;;4974982;28;45406;-76
2023/04/21 09:57:18;;;;;;;;;24.25;23.00;;;;;;;;4976008;28;45328;-77
2023/04/21 09:59:44;;;;;;;;;21.25;19.00;;;;;;;;4976074;28;46857;-76
2023/04/21 10:02:10;;;;;;;;;21.50;18.50;;;;;;;;4976249;28;45475;-77
2023/04/21 10:04:36;;;;;;;;;23.50;18.25;;;;;;;;4976025;28;45340;-77
2023/04/21 10:07:02;;;;;;;;;20.00;20.00;;;;;;;;4976334;28;45397;-77
2023/04/21 10:09:32;;;;;;;;;19.25;17.75;;;;;;;;4976074;28;45831;-76
2023/04/21 10:11:59;;;;;;;;;18.75;17.75;;;;;;;;4976175;28;45428;-77
2023/04/21 10:14:24;;;;;;;;;19.00;18.25;;;;;;;;4975417;28;45453;-77
2023/04/21 10:16:56;;;;;;;;;18.00;17.75;;;;;;;;4976246;28;45307;-77
2023/04/21 10:19:26;;;;;;;;;19.25;18.00;;;;;;;;4976329;28;45620;-76
2023/04/21 10:21:54;;;;;;;;;27.00;21.75;;;;;;;;4976389;28;45352;-76
2023/04/21 10:24:19;;;;;;;;;23.00;22.00;;;;;;;;4976476;28;45361;-77
2023/04/21 10:26:45;;;;;;;;;23.25;22.25;;;;;;;;4976516;28;45458;-76
2023/04/21 10:29:10;;;;;;;;;21.00;20.25;;;;;;;;4972071;28;45471;-77
2023/04/21 10:31:36;;;;;;;;;21.00;19.00;;;;;;;;4970787;28;45652;-76
2023/04/21 10:34:04;;;;;;;;;20.75;20.75;;;;;;;;4976542;28;45502;-76
2023/04/21 10:36:29;;;;;;;;;19.75;18.50;;;;;;;;4985323;28;45388;-76
2023/04/21 10:38:57;;;;;;;;;23.00;21.75;;;;;;;;4991686;28;46422;-76
2023/04/21 10:41:27;;;;;;;;;31.00;24.00;;;;;;;;4976624;28;46124;-76
2023/04/21 10:43:52;;;;;;;;;22.75;22.25;;;;;;;;4988309;28;45428;-77
2023/04/21 10:46:47;;;;;;;;;29.25;24.75;;;;;;;;4983593;28;45392;-76
2023/04/21 10:49:29;;;;;;;;;25.00;24.00;;;;;;;;4986325;28;45782;-77
2023/04/21 10:52:01;;;;;;;;;24.25;24.25;;;;;;;;4982484;28;45380;-77
2023/04/21 10:54:40;;;;;;;;;25.50;24.50;;;;;;;;4982599;28;45353;-77
2023/04/21 10:57:07;;;;;;;;;22.75;22.75;;;;;;;;4979212;28;45486;-77
2023/04/21 10:59:33;;;;;;;;;24.00;21.75;;;;;;;;4989176;28;47628;-76
2023/04/21 11:01:58;;;;;;;;;30.25;24.25;;;;;;;;4977151;28;45421;-77
2023/04/21 11:04:24;;;;;;;;;19.00;19.00;;;;;;;;4968316;28;45409;-77
2023/04/21 11:07:08;;;;;;;;;23.75;22.25;;;;;;;;4979581;28;45459;-77
2023/04/21 11:09:34;;;;;;;;;26.00;26.00;;;;;;;;4957195;28;46423;-77
2023/04/21 11:12:02;;;;;;;;;31.75;30.00;;;;;;;;4959330;28;45391;-77
2023/04/21 11:14:27;;;;;;;;;24.75;24.25;;;;;;;;4959647;28;45344;-77
2023/04/21 11:16:52;;;;;;;;;26.50;24.50;;;;;;;;4959590;28;45511;-76
2023/04/21 11:19:19;;;;;;;;;22.00;21.00;;;;;;;;4959162;28;46219;-77
2023/04/21 11:21:47;;;;;;;;;24.75;23.50;;;;;;;;4966076;28;45416;-77
2023/04/21 11:24:13;;;;;;;;;23.50;23.50;;;;;;;;4976298;28;45588;-77
2023/04/21 11:26:38;;;;;;;;;18.00;17.50;;;;;;;;4976851;28;45501;-77
2023/04/21 11:29:05;;;;;;;;;24.75;24.75;;;;;;;;4977251;28;46516;-76
2023/04/21 11:31:31;;;;;;;;;16.75;14.75;;;;;;;;4978289;28;45289;-77
2023/04/21 11:33:57;;;;;;;;;23.25;20.75;;;;;;;;4977591;28;45384;-76
2023/04/21 11:36:22;;;;;;;;;21.00;19.50;;;;;;;;4978505;28;45461;-74
2023/04/21 11:38:47;;;;;;;;;23.00;22.25;;;;;;;;4977889;28;46168;-74
2023/04/21 11:41:19;;;;;;;;;28.50;28.00;;;;;;;;4978533;28;45436;-74
2023/04/21 11:43:45;;;;;;;;;21.50;21.50;;;;;;;;4978710;28;45448;-75
2023/04/21 11:46:23;;;;;;;;;20.50;19.75;;;;;;;;4978171;28;45359;-76
2023/04/21 11:49:03;;;;;;;;;22.75;22.75;;;;;;;;4958601;28;47717;-75
2023/04/21 11:51:35;;;;;;;;;24.75;21.25;;;;;;;;4957316;28;45560;-76
2023/04/21 11:54:00;;;;;;;;;21.25;21.25;;;;;;;;4963389;28;45439;-76
2023/04/21 11:56:25;;;;;;;;;21.75;20.25;;;;;;;;4978093;28;45508;-75
2023/04/21 11:58:54;;;;;;;;;23.75;22.75;;;;;;;;4978031;28;46751;-75
2023/04/21 12:01:20;;;;;;;;;22.50;22.50;;;;;;;;4978225;28;45595;-76
2023/04/21 12:03:52;;;;;;;;;28.75;22.25;;;;;;;;4978192;28;45317;-75
2023/04/21 12:06:27;;;;;;;;;19.75;19.75;;;;;;;;4976735;28;45515;-75
2023/04/21 12:08:58;;;;;;;;;21.25;19.00;;;;;;;;4977484;28;47596;-75
2023/04/21 12:11:25;;;;;;;;;23.00;20.50;;;;;;;;4973563;28;45593;-75
2023/04/21 12:13:51;;;;;;;;;21.50;21.25;;;;;;;;4978273;28;45497;-75
2023/04/21 12:16:16;;;;;;;;;19.75;19.00;;;;;;;;4977640;28;45346;-75
2023/04/21 12:18:42;;;;;;;;;23.75;22.25;;;;;;;;4976538;28;46500;-75
2023/04/21 12:21:07;;;;;;;;;23.50;23.00;;;;;;;;4977423;28;45368;-75
2023/04/21 12:23:32;;;;;;;;;21.50;21.25;;;;;;;;4976822;28;45395;-75
2023/04/21 12:25:58;;;;;;;;;23.00;22.75;;;;;;;;4977994;28;45404;-75
2023/04/21 12:28:23;;;;;;;;;20.50;19.00;;;;;;;;4976043;28;48185;-75
2023/04/21 12:30:49;;;;;;;;;20.00;20.00;;;;;;;;4976439;28;45404;-74
2023/04/21 12:33:14;;;;;;;;;19.25;19.25;;;;;;;;4978000;28;45381;-75
2023/04/21 12:35:39;;;;;;;;;20.50;20.00;;;;;;;;4977609;28;45443;-75
2023/04/21 12:38:05;;;;;;;;;17.50;17.50;;;;;;;;4977618;28;46090;-74
2023/04/21 12:40:31;;;;;;;;;25.75;23.75;;;;;;;;4977321;28;45375;-75
2023/04/21 12:42:56;;;;;;;;;21.75;20.75;;;;;;;;4977753;28;45305;-73
2023/04/21 12:45:21;;;;;;;;;20.00;20.00;;;;;;;;4977192;28;45427;-73
2023/04/21 12:47:47;;;;;;;;;26.00;24.00;;;;;;;;4977295;28;46116;-76
2023/04/21 12:50:13;;;;;;;;;21.50;21.50;;;;;;;;4975761;28;45420;-76
2023/04/21 12:52:38;;;;;;;;;25.25;23.75;;;;;;;;4976901;28;45486;-75
2023/04/21 12:55:03;;;;;;;;;20.50;18.25;;;;;;;;4977184;28;45333;-75
2023/04/21 12:57:30;;;;;;;;;18.00;16.00;;;;;;;;4977416;28;46557;-75
2023/04/21 12:59:55;;;;;;;;;19.00;18.75;;;;;;;;4977309;28;45436;-76
2023/04/21 13:02:21;;;;;;;;;19.75;18.75;;;;;;;;4977561;28;45389;-75
2023/04/21 13:04:46;;;;;;;;;18.50;17.50;;;;;;;;4977313;28;45356;-74
2023/04/21 13:07:11;;;;;;;;;23.00;21.50;;;;;;;;4977305;28;45436;-75
2023/04/21 13:09:37;;;;;;;;;18.25;17.25;;;;;;;;4976959;28;45427;-75
2023/04/21 13:12:02;;;;;;;;;14.50;14.50;;;;;;;;4977408;28;45455;-75
2023/04/21 13:14:28;;;;;;;;;20.00;18.00;;;;;;;;4977276;28;45569;-75
2023/04/21 13:16:53;;;;;;;;;18.00;18.00;;;;;;;;4976807;28;46005;-75
2023/04/21 13:19:18;;;;;;;;;19.75;18.50;;;;;;;;4975009;28;45367;-75
2023/04/21 13:21:44;;;;;;;;;20.00;18.00;;;;;;;;4975491;28;45544;-75
2023/04/21 13:24:09;;;;;;;;;17.75;17.50;;;;;;;;4976876;28;45468;-75
2023/04/21 13:26:34;;;;;;;;;19.50;17.50;;;;;;;;4976224;28;47392;-75
2023/04/21 13:29:00;;;;;;;;;18.25;15.50;;;;;;;;4972116;28;45473;-75
2023/04/21 13:31:25;;;;;;;;;18.75;18.50;;;;;;;;4975947;28;45348;-75
2023/04/21 13:33:51;;;;;;;;;18.75;15.25;;;;;;;;4976524;28;45286;-75
2023/04/21 13:36:16;;;;;;;;;18.00;17.50;;;;;;;;4976463;28;46403;-76
2023/04/21 13:38:41;;;;;;;;;22.25;20.50;;;;;;;;4976574;28;45425;-75
2023/04/21 13:41:07;;;;;;;;;21.25;19.25;;;;;;;;4965287;28;45248;-75
2023/04/21 13:43:32;;;;;;;;;27.25;23.75;;;;;;;;4958401;28;45415;-75
2023/04/21 13:45:57;;;;;;;;;20.50;19.25;;;;;;;;4976335;28;46361;-74
2023/04/21 13:48:23;;;;;;;;;22.25;18.25;;;;;;;;4958844;28;45361;-74
2023/04/21 13:50:48;;;;;;;;;19.75;19.00;;;;;;;;4956418;28;45297;-75
2023/04/21 13:53:15;;;;;;;;;19.50;17.50;;;;;;;;4957697;28;45710;-75
2023/04/21 13:55:41;;;;;;;;;20.50;20.50;;;;;;;;4959318;28;45975;-73
2023/04/21 13:58:07;;;;;;;;;15.00;15.00;;;;;;;;4977843;28;45411;-76
2023/04/21 14:00:32;;;;;;;;;18.25;17.25;;;;;;;;4978364;28;45417;-73
2023/04/21 14:02:57;;;;;;;;;20.25;20.25;;;;;;;;4978260;28;45432;-75
2023/04/21 14:05:23;;;;;;;;;19.00;18.50;;;;;;;;4978562;28;45278;-74
2023/04/21 14:07:48;;;;;;;;;21.50;20.50;;;;;;;;4978679;28;45486;-74
2023/04/21 14:10:13;;;;;;;;;20.75;20.50;;;;;;;;4976218;28;45446;-75